Lifjell — 3YWB — position and weather

sailwx.info

Track history (hours):
 
Tides and Currents Weather Stations Pressure Air Temp Water Temp Dewpoint Dewpoint Depression Visibility Wind Speed Wind Dir Waves Ship Positions

Lifjell

Last reported at 2017-Nov-19 01:00 UTC. Time now 2017-Nov-19 01:19 UTC.
Position N 68°47' E 016°33'.

Length 63 m; draft 6 m.

Type: Cargo ship. MMSI: 259091000.

Date/timePositionNaut miles runAvg speedWind from/ knotsBaromVisibWave heightAir tempDewpointWater temp
2017-Nov-19 01:00N 68°47' E 016°33'0 0.0
2017-Nov-19 00:30N 68°47' E 016°33'0 0.0
2017-Nov-18 23:59N 68°47' E 016°33'0 0.0
2017-Nov-18 23:29N 68°47' E 016°33'0 0.0
2017-Nov-18 22:59N 68°47' E 016°33'0 0.0
2017-Nov-18 22:29N 68°47' E 016°33'0 0.0
2017-Nov-18 21:59N 68°47' E 016°33'0 0.0
2017-Nov-18 21:29N 68°47' E 016°33'0 0.0
2017-Nov-18 21:00N 68°47' E 016°33'0 0.0
2017-Nov-18 20:30N 68°47' E 016°33'0 0.0
2017-Nov-18 20:00N 68°47' E 016°33'0 0.0
2017-Nov-18 19:30N 68°47' E 016°33'0 0.0
2017-Nov-18 18:59N 68°47' E 016°33'0 0.0
2017-Nov-18 18:29N 68°47' E 016°33'0 0.0
2017-Nov-18 17:59N 68°47' E 016°33'0 0.0
2017-Nov-18 17:30N 68°47' E 016°33'0 0.0
2017-Nov-18 16:59N 68°47' E 016°33'0 0.0
2017-Nov-18 16:30N 68°47' E 016°33'0 0.0
2017-Nov-18 16:00N 68°47' E 016°33'0 0.0
2017-Nov-18 15:29N 68°47' E 016°33'0 0.0
2017-Nov-18 15:00N 68°47' E 016°33'0 0.0
2017-Nov-18 14:29N 68°47' E 016°33'0 0.0
2017-Nov-18 13:59N 68°47' E 016°33'0 0.0
2017-Nov-18 13:29N 68°47' E 016°33'0 0.0
2017-Nov-18 13:00N 68°47' E 016°33'0 0.0
2017-Nov-18 12:29N 68°47' E 016°33'0 0.0
2017-Nov-18 11:59N 68°47' E 016°33'0 0.0
2017-Nov-18 11:29N 68°47' E 016°33'0 0.0
2017-Nov-18 10:59N 68°47' E 016°33'0 0.0
2017-Nov-18 10:29N 68°47' E 016°33'0 0.0
2017-Nov-18 09:59N 68°47' E 016°33'0 0.0
2017-Nov-18 09:29N 68°47' E 016°33'0 0.0
2017-Nov-18 08:59N 68°47' E 016°33'0 0.0
2017-Nov-18 08:30N 68°47' E 016°33'0 0.0
2017-Nov-18 08:00N 68°47' E 016°33'0 0.0
2017-Nov-18 07:30N 68°47' E 016°33'0 0.0
2017-Nov-18 07:00N 68°47' E 016°33'0 0.0
2017-Nov-18 06:30N 68°47' E 016°33'0 0.0
2017-Nov-18 06:00N 68°47' E 016°33'0 0.0
2017-Nov-18 05:30N 68°47' E 016°33'0 0.0
2017-Nov-18 05:00N 68°47' E 016°33'0 0.0
2017-Nov-18 04:30N 68°47' E 016°33'0 0.0
2017-Nov-18 04:00N 68°47' E 016°33'0 0.0
2017-Nov-18 03:30N 68°47' E 016°33'0 0.0
2017-Nov-18 03:00N 68°47' E 016°33'0 0.0
2017-Nov-18 02:30N 68°47' E 016°33'0 0.0
2017-Nov-18 02:01N 68°47' E 016°33'0 0.0
2017-Nov-18 01:30N 68°47' E 016°33'0 0.6
2017-Nov-18 01:00N 68°48' E 016°33'4 7.9
2017-Nov-18 00:31N 68°51' E 016°39'510.2
2017-Nov-18 00:00N 68°52' E 016°54'1 2.4
2017-Nov-17 23:31N 68°51' E 016°53'2 3.4
2017-Nov-17 23:01N 68°49' E 016°51'2 4.2
2017-Nov-17 22:30N 68°47' E 016°48'2 4.8
2017-Nov-17 22:01N 68°45' E 016°46'2 4.4
2017-Nov-17 21:30N 68°43' E 016°45'3 5.7
2017-Nov-17 21:00N 68°43' E 016°53'3 6.1
2017-Nov-17 20:30N 68°44' E 017°01'4 7.5
2017-Nov-17 20:00N 68°44' E 017°11'4 8.8
2017-Nov-17 19:30N 68°44' E 017°23'2 2.4
2017-Nov-17 18:53N 68°43' E 017°26'0 0.0
2017-Nov-17 18:04N 68°43' E 017°26'0 0.0
2017-Nov-17 17:17N 68°43' E 017°26'1 4.8
2017-Nov-17 17:00N 68°44' E 017°24'5 8.9
2017-Nov-17 16:29N 68°44' E 017°11'4 9.2
2017-Nov-17 16:00N 68°43' E 016°59'4 8.3
2017-Nov-17 15:31N 68°43' E 016°48'5 8.8
2017-Nov-17 15:00N 68°47' E 016°53'1 1.4
2017-Nov-17 14:30N 68°48' E 016°55'0 0.0
2017-Nov-17 14:00N 68°48' E 016°55'0 0.0
2017-Nov-17 13:30N 68°48' E 016°55'0 0.0
2017-Nov-17 13:00N 68°48' E 016°55'0 0.0
2017-Nov-17 12:29N 68°48' E 016°55'0 0.0
2017-Nov-17 12:00N 68°48' E 016°55'0 0.0
2017-Nov-17 11:30N 68°48' E 016°55'0 0.0
2017-Nov-17 11:00N 68°48' E 016°55'2 3.7
2017-Nov-17 10:30N 68°48' E 016°50'510.0
2017-Nov-17 10:01N 68°48' E 016°36'1 2.7
2017-Nov-17 09:30N 68°47' E 016°33'0 0.0
2017-Nov-17 09:00N 68°47' E 016°33'0 0.0
2017-Nov-17 08:30N 68°47' E 016°33'0 0.0
2017-Nov-17 08:00N 68°47' E 016°33'0 0.1
2017-Nov-17 07:30N 68°48' E 016°33'0 0.0
2017-Nov-17 07:00N 68°48' E 016°33'0 0.0
2017-Nov-17 06:30N 68°48' E 016°33'0 0.0
2017-Nov-17 06:00N 68°48' E 016°33'0 0.0
2017-Nov-17 05:30N 68°48' E 016°33'0 0.0
2017-Nov-17 05:01N 68°48' E 016°33'0 0.0
2017-Nov-17 04:30N 68°48' E 016°33'0 0.0
2017-Nov-17 04:00N 68°48' E 016°33'0 0.0
2017-Nov-17 03:30N 68°48' E 016°33'0 0.0
2017-Nov-17 03:00N 68°48' E 016°33'0 0.0
2017-Nov-17 02:31N 68°48' E 016°33'0 0.0
2017-Nov-17 02:01N 68°48' E 016°33'0 0.0
2017-Nov-17 01:30N 68°48' E 016°33'0 0.0
2017-Nov-17 01:00N 68°48' E 016°33'0 0.0
2017-Nov-17 00:30N 68°48' E 016°33'0 0.0
2017-Nov-17 00:00N 68°48' E 016°33'0 0.0
2017-Nov-16 23:30N 68°48' E 016°33'0 0.0
2017-Nov-16 23:00N 68°48' E 016°33'0 0.0
2017-Nov-16 22:30N 68°48' E 016°33'0 0.0
2017-Nov-16 22:00N 68°48' E 016°33'0 0.0
2017-Nov-16 21:31N 68°48' E 016°33'1 2.8
2017-Nov-16 21:01N 68°48' E 016°36'510.1
2017-Nov-16 20:31N 68°44' E 016°46'4 8.6
2017-Nov-16 20:01N 68°44' E 016°58'510.1
2017-Nov-16 19:31N 68°45' E 017°10'510.3
2017-Nov-16 19:00N 68°49' E 017°22'510.3
2017-Nov-16 18:30N 68°52' E 017°32'4 7.3
2017-Nov-16 18:00N 68°54' E 017°41'0 0.0
2017-Nov-16 17:30N 68°54' E 017°41'0 0.0
2017-Nov-16 17:00N 68°54' E 017°41'0 0.0
2017-Nov-16 16:30N 68°54' E 017°41'2 3.4
2017-Nov-16 16:01N 68°54' E 017°37'5 9.3
2017-Nov-16 15:30N 68°50' E 017°28'5 1.5
2017-Nov-16 12:04N 68°47' E 017°38'0 3.8
2017-Nov-16 11:58N 68°47' E 017°38'4 8.2
2017-Nov-16 11:30N 68°49' E 017°29'5 9.5
2017-Nov-16 11:00N 68°47' E 017°17'510.0
2017-Nov-16 10:31N 68°44' E 017°06'510.0
2017-Nov-16 10:00N 68°43' E 016°53'4 8.9
2017-Nov-16 09:31N 68°46' E 016°43'5 9.3
2017-Nov-16 09:00N 68°49' E 016°33'0 0.3
2017-Nov-16 08:30N 68°48' E 016°33'0 0.0
2017-Nov-16 07:59N 68°48' E 016°33'0 0.0
2017-Nov-16 07:30N 68°48' E 016°33'0 0.0
2017-Nov-16 07:00N 68°48' E 016°33'0 0.0
2017-Nov-16 06:30N 68°48' E 016°33'0 0.0
2017-Nov-16 06:00N 68°48' E 016°33'0 0.0
2017-Nov-16 05:30N 68°48' E 016°33'0 0.0
2017-Nov-16 05:00N 68°48' E 016°33'0 0.0
2017-Nov-16 04:30N 68°48' E 016°33'0 0.0
2017-Nov-16 04:00N 68°48' E 016°33'0 0.0
2017-Nov-16 03:31N 68°48' E 016°33'0 0.0
2017-Nov-16 03:00N 68°48' E 016°33'0 0.0
2017-Nov-16 02:30N 68°48' E 016°33'0 0.0
2017-Nov-16 02:00N 68°48' E 016°33'0 0.0
2017-Nov-16 01:30N 68°48' E 016°33'0 0.0
2017-Nov-16 01:00N 68°48' E 016°33'0 0.0
2017-Nov-16 00:30N 68°48' E 016°33'0 0.0
2017-Nov-16 00:00N 68°48' E 016°33'0 0.0
2017-Nov-15 23:30N 68°48' E 016°33'0 0.0
2017-Nov-15 23:01N 68°48' E 016°33'0 0.0
2017-Nov-15 22:30N 68°48' E 016°33'0 0.0
2017-Nov-15 22:00N 68°48' E 016°33'0 0.0
2017-Nov-15 21:30N 68°48' E 016°33'0 0.0
2017-Nov-15 21:00N 68°48' E 016°33'0 0.0
2017-Nov-15 20:30N 68°48' E 016°33'0 0.0
2017-Nov-15 20:00N 68°48' E 016°33'0 0.0
2017-Nov-15 19:30N 68°48' E 016°33'0 0.0
2017-Nov-15 19:00N 68°48' E 016°33'0 0.0
2017-Nov-15 18:30N 68°48' E 016°33'0 0.0
2017-Nov-15 18:00N 68°48' E 016°33'0 0.0
2017-Nov-15 17:30N 68°48' E 016°33'0 0.0
2017-Nov-15 17:00N 68°48' E 016°33'0 0.0
2017-Nov-15 16:30N 68°48' E 016°33'0 0.0
2017-Nov-15 16:00N 68°48' E 016°33'0 0.0
2017-Nov-15 15:30N 68°48' E 016°33'0 0.0
2017-Nov-15 15:00N 68°48' E 016°33'0 0.0
2017-Nov-15 14:30N 68°48' E 016°33'0 0.0
2017-Nov-15 14:00N 68°48' E 016°33'0 0.0
2017-Nov-15 13:30N 68°48' E 016°33'0 0.0
2017-Nov-15 13:00N 68°48' E 016°33'0 0.0
2017-Nov-15 12:30N 68°48' E 016°33'0 0.0
2017-Nov-15 12:00N 68°48' E 016°33'0 0.0
2017-Nov-15 11:30N 68°48' E 016°33'0 0.0
2017-Nov-15 11:00N 68°48' E 016°33'0 0.0
2017-Nov-15 10:30N 68°48' E 016°33'0 0.0
2017-Nov-15 10:00N 68°48' E 016°33'0 0.0
2017-Nov-15 09:30N 68°48' E 016°33'0 0.0
2017-Nov-15 09:00N 68°48' E 016°33'0 0.0
2017-Nov-15 08:30N 68°48' E 016°33'0 0.0
2017-Nov-15 08:00N 68°48' E 016°33'1 1.1
2017-Nov-15 07:30N 68°48' E 016°33'0 0.0
2017-Nov-15 06:58N 68°48' E 016°33'0 0.0
2017-Nov-15 06:28N 68°48' E 016°33'0 0.0
2017-Nov-15 05:58N 68°48' E 016°33'0 0.0
2017-Nov-15 05:28N 68°48' E 016°33'0 0.0
2017-Nov-15 05:00N 68°48' E 016°33'2 4.0
2017-Nov-15 04:30N 68°48' E 016°38'2 4.2
2017-Nov-15 04:00N 68°47' E 016°44'2 3.0
2017-Nov-15 03:30N 68°46' E 016°46'2 4.1
2017-Nov-15 03:00N 68°44' E 016°48'3 6.6
2017-Nov-15 02:30N 68°43' E 016°57'4 7.4
2017-Nov-15 02:00N 68°44' E 017°07'4 8.6
2017-Nov-15 01:30N 68°44' E 017°18'3 5.7
2017-Nov-15 00:59N 68°43' E 017°26'0 0.4
2017-Nov-15 00:02N 68°43' E 017°26'0 0.3
2017-Nov-14 23:54N 68°43' E 017°26'0 0.0
2017-Nov-14 23:04N 68°43' E 017°26'0 1.5
2017-Nov-14 22:58N 68°43' E 017°26'3 6.8
2017-Nov-14 22:30N 68°44' E 017°18'4 8.8
2017-Nov-14 22:00N 68°44' E 017°06'5 9.2
2017-Nov-14 21:30N 68°43' E 016°53'2 5.1
2017-Nov-14 21:00N 68°45' E 016°50'3 5.8
2017-Nov-14 20:30N 68°48' E 016°55'0 0.0
2017-Nov-14 19:59N 68°48' E 016°55'0 0.0
2017-Nov-14 19:30N 68°48' E 016°55'0 0.0
2017-Nov-14 19:00N 68°48' E 016°55'0 0.0
2017-Nov-14 18:30N 68°48' E 016°55'0 0.7
2017-Nov-14 18:00N 68°48' E 016°54'4 8.9
2017-Nov-14 17:30N 68°48' E 016°42'3 6.9
2017-Nov-14 17:00N 68°48' E 016°33'0 0.0
2017-Nov-14 16:29N 68°48' E 016°33'0 0.0
2017-Nov-14 15:59N 68°48' E 016°33'0 0.0
2017-Nov-14 15:29N 68°48' E 016°33'0 0.0
2017-Nov-14 14:59N 68°48' E 016°33'0 0.0
2017-Nov-14 14:29N 68°48' E 016°33'0 0.0
2017-Nov-14 13:59N 68°48' E 016°33'0 0.0
2017-Nov-14 13:29N 68°48' E 016°33'0 0.0
2017-Nov-14 12:59N 68°48' E 016°33'0 0.0
2017-Nov-14 12:29N 68°48' E 016°33'0 0.0
2017-Nov-14 11:59N 68°48' E 016°33'0 0.0
2017-Nov-14 11:29N 68°48' E 016°33'0 0.0
2017-Nov-14 10:59N 68°48' E 016°33'0 0.0
2017-Nov-14 10:29N 68°48' E 016°33'0 0.0
2017-Nov-14 09:59N 68°48' E 016°33'0 0.0
2017-Nov-14 09:29N 68°48' E 016°33'0 0.0
2017-Nov-14 08:59N 68°48' E 016°33'0 0.0
2017-Nov-14 08:29N 68°48' E 016°33'0 0.0
2017-Nov-14 07:59N 68°48' E 016°33'0 0.0
2017-Nov-14 07:29N 68°48' E 016°33'0 0.0
2017-Nov-14 06:59N 68°48' E 016°33'0 0.0
2017-Nov-14 06:29N 68°48' E 016°33'0 0.0
2017-Nov-14 05:59N 68°48' E 016°33'0 0.0
2017-Nov-14 05:29N 68°48' E 016°33'0 0.0
2017-Nov-14 04:59N 68°48' E 016°33'0 0.0
2017-Nov-14 04:29N 68°48' E 016°33'0 0.0
2017-Nov-14 03:59N 68°48' E 016°33'0 0.0
2017-Nov-14 03:29N 68°48' E 016°33'0 0.0
2017-Nov-14 02:59N 68°48' E 016°33'0 0.0
2017-Nov-14 02:29N 68°48' E 016°33'0 0.0
2017-Nov-14 01:59N 68°48' E 016°33'0 0.0
2017-Nov-14 01:29N 68°48' E 016°33'0 0.0
2017-Nov-14 00:59N 68°48' E 016°33'0 0.0
2017-Nov-14 00:29N 68°48' E 016°33'0 0.0
2017-Nov-13 23:59N 68°48' E 016°33'0 0.0
2017-Nov-13 23:29N 68°48' E 016°33'0 0.0
2017-Nov-13 22:59N 68°48' E 016°33'0 0.0
2017-Nov-13 22:29N 68°48' E 016°33'0 0.0
2017-Nov-13 21:59N 68°48' E 016°33'24 1.2
2017-Nov-13 01:59N 68°47' E 017°38'0 0.0
2017-Nov-13 01:13N 68°47' E 017°38'0 0.0
2017-Nov-12 19:51N 68°47' E 017°38'0 0.7
2017-Nov-12 19:30N 68°47' E 017°39'1 1.5
2017-Nov-12 18:58N 68°48' E 017°37'3 5.7
2017-Nov-12 18:30N 68°49' E 017°31'3 6.0
2017-Nov-12 18:00N 68°49' E 017°23'3 5.7
2017-Nov-12 17:30N 68°47' E 017°17'2 4.5
2017-Nov-12 17:00N 68°45' E 017°16'3 6.0
2017-Nov-12 16:30N 68°44' E 017°23'1 2.3
2017-Nov-12 15:53N 68°43' E 017°26'0 0.1
2017-Nov-12 15:07N 68°43' E 017°26'0 0.0
2017-Nov-12 14:59N 68°43' E 017°26'0 0.0
2017-Nov-12 14:24N 68°43' E 017°26'0 0.0
2017-Nov-12 13:59N 68°43' E 017°26'3 6.3
2017-Nov-12 13:30N 68°44' E 017°18'4 8.7
2017-Nov-12 13:00N 68°48' E 017°11'4 8.6
2017-Nov-12 12:30N 68°51' E 017°05'4 8.1
2017-Nov-12 12:00N 68°52' E 016°54'4 9.0
2017-Nov-12 11:30N 68°51' E 016°42'1 1.6
2017-Nov-12 11:00N 68°52' E 016°40'0 0.0
2017-Nov-12 10:30N 68°52' E 016°40'0 0.0
2017-Nov-12 10:00N 68°52' E 016°40'0 0.0
2017-Nov-12 09:30N 68°52' E 016°40'0 0.0
2017-Nov-12 09:00N 68°52' E 016°40'1 2.6
2017-Nov-12 08:30N 68°51' E 016°40'3 6.8
2017-Nov-12 08:00N 68°48' E 016°33'0 0.2
2017-Nov-12 07:29N 68°48' E 016°33'0 0.0
2017-Nov-12 06:59N 68°48' E 016°33'0 0.0
2017-Nov-12 06:29N 68°48' E 016°33'0 0.0
2017-Nov-12 05:59N 68°48' E 016°33'0 0.0
2017-Nov-12 05:29N 68°48' E 016°33'0 0.0
2017-Nov-12 04:59N 68°48' E 016°33'0 0.0
2017-Nov-12 04:29N 68°48' E 016°33'0 0.0
2017-Nov-12 03:59N 68°48' E 016°33'0 0.0
2017-Nov-12 03:29N 68°48' E 016°33'0 0.0
2017-Nov-12 02:59N 68°48' E 016°33'0 0.0
2017-Nov-12 02:29N 68°48' E 016°33'0 0.0
2017-Nov-12 01:59N 68°48' E 016°33'0 0.0
2017-Nov-12 01:29N 68°48' E 016°33'0 0.0
2017-Nov-12 00:59N 68°48' E 016°33'0 0.0
2017-Nov-12 00:29N 68°48' E 016°33'0 0.0
2017-Nov-11 23:59N 68°48' E 016°33'0 0.0
2017-Nov-11 23:29N 68°48' E 016°33'0 0.0
2017-Nov-11 22:59N 68°48' E 016°33'0 0.0
2017-Nov-11 22:29N 68°48' E 016°33'0 0.0
2017-Nov-11 21:59N 68°48' E 016°33'0 0.0
2017-Nov-11 21:29N 68°48' E 016°33'0 0.0
2017-Nov-11 20:59N 68°48' E 016°33'0 0.0
2017-Nov-11 20:29N 68°48' E 016°33'0 0.1
2017-Nov-11 20:01N 68°48' E 016°33'4 8.1
2017-Nov-11 19:30N 68°46' E 016°42'5 9.7
2017-Nov-11 19:00N 68°43' E 016°52'510.4
2017-Nov-11 18:30N 68°44' E 017°06'510.4
2017-Nov-11 18:01N 68°44' E 017°21'2 0.7
2017-Nov-11 15:01N 68°43' E 017°26'0 2.9
2017-Nov-11 14:52N 68°43' E 017°26'3 8.6
2017-Nov-11 14:30N 68°44' E 017°18'4 8.9
2017-Nov-11 14:00N 68°48' E 017°10'5 9.2
2017-Nov-11 13:30N 68°52' E 017°04'4 8.7
2017-Nov-11 13:00N 68°52' E 016°52'4 8.4
2017-Nov-11 12:30N 68°52' E 016°40'0 0.5
2017-Nov-11 12:00N 68°52' E 016°40'0 0.0
2017-Nov-11 11:30N 68°52' E 016°40'0 0.0
2017-Nov-11 11:00N 68°52' E 016°40'0 0.0
2017-Nov-11 10:30N 68°52' E 016°40'0 0.0
2017-Nov-11 10:00N 68°52' E 016°40'0 0.0
2017-Nov-11 09:30N 68°52' E 016°40'1 2.8
2017-Nov-11 09:00N 68°53' E 016°40'510.2
2017-Nov-11 08:30N 68°58' E 016°47'5 9.9
2017-Nov-11 08:00N 69°02' E 016°45'510.0
2017-Nov-11 07:30N 69°08' E 016°47'510.3
2017-Nov-11 07:00N 69°12' E 016°52'510.2
2017-Nov-11 06:30N 69°18' E 016°53'4 8.8
2017-Nov-11 06:00N 69°21' E 017°01'2 3.2
2017-Nov-11 05:30N 69°20' E 017°06'0 0.0
2017-Nov-11 05:00N 69°20' E 017°06'0 0.0
2017-Nov-11 04:30N 69°20' E 017°06'0 0.0
2017-Nov-11 04:00N 69°20' E 017°06'3 5.6
2017-Nov-11 03:30N 69°21' E 016°58'3 7.0
2017-Nov-11 03:01N 69°24' E 016°51'4 8.6
2017-Nov-11 02:30N 69°28' E 016°54'4 7.6
2017-Nov-11 02:01N 69°31' E 016°59'4 8.2
2017-Nov-11 01:30N 69°33' E 017°10'4 8.0
2017-Nov-11 01:00N 69°35' E 017°20'4 7.9
2017-Nov-11 00:30N 69°37' E 017°30'4 8.6
2017-Nov-11 00:00N 69°36' E 017°42'3 6.5
2017-Nov-10 23:30N 69°33' E 017°46'0 0.0
2017-Nov-10 23:00N 69°33' E 017°46'0 0.0
2017-Nov-10 22:30N 69°33' E 017°46'0 0.0
2017-Nov-10 22:00N 69°33' E 017°46'2 3.0
2017-Nov-10 21:30N 69°34' E 017°45'4 8.7
2017-Nov-10 21:00N 69°37' E 017°34'510.0
2017-Nov-10 20:30N 69°35' E 017°20'510.6
2017-Nov-10 20:00N 69°33' E 017°07'510.7
2017-Nov-10 19:31N 69°30' E 016°54'510.7
2017-Nov-10 19:00N 69°24' E 016°52'4 8.1
2017-Nov-10 18:30N 69°21' E 016°59'2 5.0
2017-Nov-10 18:00N 69°20' E 017°06'0 0.0
2017-Nov-10 17:30N 69°20' E 017°06'0 0.0
2017-Nov-10 17:00N 69°20' E 017°06'0 0.0
2017-Nov-10 16:30N 69°20' E 017°06'1 1.6
2017-Nov-10 16:00N 69°20' E 017°03'5 8.9
2017-Nov-10 15:30N 69°22' E 016°51'4 7.6
2017-Nov-10 15:00N 69°26' E 016°53'4 8.0
2017-Nov-10 14:30N 69°30' E 016°54'4 8.0
2017-Nov-10 14:00N 69°32' E 017°03'4 8.3
2017-Nov-10 13:31N 69°34' E 017°13'4 8.8
2017-Nov-10 13:00N 69°36' E 017°24'4 8.7
2017-Nov-10 12:30N 69°36' E 017°37'4 8.3
2017-Nov-10 12:00N 69°33' E 017°45'1 1.6
2017-Nov-10 11:30N 69°33' E 017°46'0 0.0
2017-Nov-10 11:00N 69°33' E 017°46'0 0.0
2017-Nov-10 10:30N 69°33' E 017°46'0 0.0
2017-Nov-10 10:00N 69°33' E 017°46'0 0.0
2017-Nov-10 09:30N 69°33' E 017°46'0 0.0
2017-Nov-10 09:00N 69°33' E 017°46'0 0.0
2017-Nov-10 08:30N 69°33' E 017°46'0 0.1
2017-Nov-10 08:00N 69°33' E 017°46'0 0.0
2017-Nov-10 07:30N 69°33' E 017°46'0 0.0
2017-Nov-10 07:00N 69°33' E 017°46'1 1.0
2017-Nov-10 06:30N 69°33' E 017°46'0 0.4
2017-Nov-10 06:00N 69°33' E 017°46'0 0.9
2017-Nov-10 05:30N 69°34' E 017°45'3 5.8
2017-Nov-10 05:00N 69°37' E 017°43'2 4.0
2017-Nov-10 04:30N 69°38' E 017°43'3 5.6
2017-Nov-10 04:00N 69°37' E 017°50'3 7.0
2017-Nov-10 03:31N 69°34' E 017°56'4 7.1
2017-Nov-10 03:00N 69°31' E 018°01'3 6.9
2017-Nov-10 02:30N 69°28' E 018°06'4 7.2
2017-Nov-10 02:01N 69°25' E 018°07'3 6.7
2017-Nov-10 01:30N 69°21' E 018°06'3 6.8
2017-Nov-10 01:00N 69°19' E 017°59'3 6.7
2017-Nov-10 00:31N 69°16' E 017°58'3 6.2
2017-Nov-10 00:00N 69°13' E 017°60'3 5.3
2017-Nov-09 23:30N 69°10' E 017°57'3 6.5
2017-Nov-09 23:01N 69°09' E 017°49'3 6.8
2017-Nov-09 22:31N 69°08' E 017°40'4 7.0
2017-Nov-09 22:00N 69°06' E 017°31'3 7.0
2017-Nov-09 21:31N 69°04' E 017°23'4 7.4
2017-Nov-09 21:00N 69°01' E 017°20'4 8.2
2017-Nov-09 20:30N 68°57' E 017°23'4 8.3
2017-Nov-09 20:01N 68°53' E 017°28'3 6.5
2017-Nov-09 19:31N 68°50' E 017°28'3 6.2
2017-Nov-09 18:58N 68°48' E 017°35'1 1.8
2017-Nov-09 18:12N 68°47' E 017°38'0 0.0
2017-Nov-09 17:47N 68°47' E 017°38'0 0.1
2017-Nov-09 16:26N 68°47' E 017°38'0 0.1
2017-Nov-09 15:06N 68°47' E 017°38'0 0.3
2017-Nov-09 14:35N 68°47' E 017°39'0 0.8
2017-Nov-09 14:29N 68°47' E 017°39'0 0.0
2017-Nov-09 13:59N 68°47' E 017°39'0 0.0
2017-Nov-09 13:30N 68°47' E 017°39'0 0.0
2017-Nov-09 13:01N 68°47' E 017°39'0 0.1
2017-Nov-09 12:30N 68°47' E 017°39'0 0.1
2017-Nov-09 11:35N 68°47' E 017°39'0 0.0
2017-Nov-09 10:51N 68°47' E 017°39'0 0.0
2017-Nov-09 10:19N 68°47' E 017°39'0 0.0
2017-Nov-09 09:58N 68°47' E 017°39'1 1.2
2017-Nov-09 09:30N 68°48' E 017°38'0 0.9
2017-Nov-09 09:01N 68°48' E 017°36'3 5.6
2017-Nov-09 08:30N 68°49' E 017°30'4 7.8
2017-Nov-09 08:00N 68°48' E 017°20'3 7.0
2017-Nov-09 07:30N 68°45' E 017°16'4 8.0
2017-Nov-09 07:00N 68°43' E 017°26'1 1.1
2017-Nov-09 06:27N 68°43' E 017°26'0 0.0
2017-Nov-09 05:59N 68°43' E 017°26'0 0.1
2017-Nov-09 04:30N 68°43' E 017°26'4 7.4
2017-Nov-09 04:00N 68°44' E 017°17'5 9.3
2017-Nov-09 03:30N 68°44' E 017°04'5 9.4
2017-Nov-09 03:00N 68°43' E 016°51'4 7.9
2017-Nov-09 02:30N 68°46' E 016°45'5 9.1
2017-Nov-09 02:00N 68°50' E 016°41'1 2.9
2017-Nov-09 01:31N 68°52' E 016°40'  
Track history (hours):
 
Tides and Currents Weather Stations Pressure Air Temp Water Temp Dewpoint Dewpoint Depression Visibility Wind Speed Wind Dir Waves Ship Positions

Lifjell

Last reported at 2017-Nov-19 01:00 UTC. Time now 2017-Nov-19 01:19 UTC.
Position N 68°47' E 016°33'.

Length 63 m; draft 6 m.

Type: Cargo ship. MMSI: 259091000.

Date/timePositionNaut miles runAvg speedWind from/ knotsBaromVisibWave heightAir tempDewpointWater temp
2017-Nov-19 01:00N 68°47' E 016°33'0 0.0
2017-Nov-19 00:30N 68°47' E 016°33'0 0.0
2017-Nov-18 23:59N 68°47' E 016°33'0 0.0
2017-Nov-18 23:29N 68°47' E 016°33'0 0.0
2017-Nov-18 22:59N 68°47' E 016°33'0 0.0
2017-Nov-18 22:29N 68°47' E 016°33'0 0.0
2017-Nov-18 21:59N 68°47' E 016°33'0 0.0
2017-Nov-18 21:29N 68°47' E 016°33'0 0.0
2017-Nov-18 21:00N 68°47' E 016°33'0 0.0
2017-Nov-18 20:30N 68°47' E 016°33'0 0.0
2017-Nov-18 20:00N 68°47' E 016°33'0 0.0
2017-Nov-18 19:30N 68°47' E 016°33'0 0.0
2017-Nov-18 18:59N 68°47' E 016°33'0 0.0
2017-Nov-18 18:29N 68°47' E 016°33'0 0.0
2017-Nov-18 17:59N 68°47' E 016°33'0 0.0
2017-Nov-18 17:30N 68°47' E 016°33'0 0.0
2017-Nov-18 16:59N 68°47' E 016°33'0 0.0
2017-Nov-18 16:30N 68°47' E 016°33'0 0.0
2017-Nov-18 16:00N 68°47' E 016°33'0 0.0
2017-Nov-18 15:29N 68°47' E 016°33'0 0.0
2017-Nov-18 15:00N 68°47' E 016°33'0 0.0
2017-Nov-18 14:29N 68°47' E 016°33'0 0.0
2017-Nov-18 13:59N 68°47' E 016°33'0 0.0
2017-Nov-18 13:29N 68°47' E 016°33'0 0.0
2017-Nov-18 13:00N 68°47' E 016°33'0 0.0
2017-Nov-18 12:29N 68°47' E 016°33'0 0.0
2017-Nov-18 11:59N 68°47' E 016°33'0 0.0
2017-Nov-18 11:29N 68°47' E 016°33'0 0.0
2017-Nov-18 10:59N 68°47' E 016°33'0 0.0
2017-Nov-18 10:29N 68°47' E 016°33'0 0.0
2017-Nov-18 09:59N 68°47' E 016°33'0 0.0
2017-Nov-18 09:29N 68°47' E 016°33'0 0.0
2017-Nov-18 08:59N 68°47' E 016°33'0 0.0
2017-Nov-18 08:30N 68°47' E 016°33'0 0.0
2017-Nov-18 08:00N 68°47' E 016°33'0 0.0
2017-Nov-18 07:30N 68°47' E 016°33'0 0.0
2017-Nov-18 07:00N 68°47' E 016°33'0 0.0
2017-Nov-18 06:30N 68°47' E 016°33'0 0.0
2017-Nov-18 06:00N 68°47' E 016°33'0 0.0
2017-Nov-18 05:30N 68°47' E 016°33'0 0.0
2017-Nov-18 05:00N 68°47' E 016°33'0 0.0
2017-Nov-18 04:30N 68°47' E 016°33'0 0.0
2017-Nov-18 04:00N 68°47' E 016°33'0 0.0
2017-Nov-18 03:30N 68°47' E 016°33'0 0.0
2017-Nov-18 03:00N 68°47' E 016°33'0 0.0
2017-Nov-18 02:30N 68°47' E 016°33'0 0.0
2017-Nov-18 02:01N 68°47' E 016°33'0 0.0
2017-Nov-18 01:30N 68°47' E 016°33'0 0.6
2017-Nov-18 01:00N 68°48' E 016°33'4 7.9
2017-Nov-18 00:31N 68°51' E 016°39'510.2
2017-Nov-18 00:00N 68°52' E 016°54'1 2.4
2017-Nov-17 23:31N 68°51' E 016°53'2 3.4
2017-Nov-17 23:01N 68°49' E 016°51'2 4.2
2017-Nov-17 22:30N 68°47' E 016°48'2 4.8
2017-Nov-17 22:01N 68°45' E 016°46'2 4.4
2017-Nov-17 21:30N 68°43' E 016°45'3 5.7
2017-Nov-17 21:00N 68°43' E 016°53'3 6.1
2017-Nov-17 20:30N 68°44' E 017°01'4 7.5
2017-Nov-17 20:00N 68°44' E 017°11'4 8.8
2017-Nov-17 19:30N 68°44' E 017°23'2 2.4
2017-Nov-17 18:53N 68°43' E 017°26'0 0.0
2017-Nov-17 18:04N 68°43' E 017°26'0 0.0
2017-Nov-17 17:17N 68°43' E 017°26'1 4.8
2017-Nov-17 17:00N 68°44' E 017°24'5 8.9
2017-Nov-17 16:29N 68°44' E 017°11'4 9.2
2017-Nov-17 16:00N 68°43' E 016°59'4 8.3
2017-Nov-17 15:31N 68°43' E 016°48'5 8.8
2017-Nov-17 15:00N 68°47' E 016°53'1 1.4
2017-Nov-17 14:30N 68°48' E 016°55'0 0.0
2017-Nov-17 14:00N 68°48' E 016°55'0 0.0
2017-Nov-17 13:30N 68°48' E 016°55'0 0.0
2017-Nov-17 13:00N 68°48' E 016°55'0 0.0
2017-Nov-17 12:29N 68°48' E 016°55'0 0.0
2017-Nov-17 12:00N 68°48' E 016°55'0 0.0
2017-Nov-17 11:30N 68°48' E 016°55'0 0.0
2017-Nov-17 11:00N 68°48' E 016°55'2 3.7
2017-Nov-17 10:30N 68°48' E 016°50'510.0
2017-Nov-17 10:01N 68°48' E 016°36'1 2.7
2017-Nov-17 09:30N 68°47' E 016°33'0 0.0
2017-Nov-17 09:00N 68°47' E 016°33'0 0.0
2017-Nov-17 08:30N 68°47' E 016°33'0 0.0
2017-Nov-17 08:00N 68°47' E 016°33'0 0.1
2017-Nov-17 07:30N 68°48' E 016°33'0 0.0
2017-Nov-17 07:00N 68°48' E 016°33'0 0.0
2017-Nov-17 06:30N 68°48' E 016°33'0 0.0
2017-Nov-17 06:00N 68°48' E 016°33'0 0.0
2017-Nov-17 05:30N 68°48' E 016°33'0 0.0
2017-Nov-17 05:01N 68°48' E 016°33'0 0.0
2017-Nov-17 04:30N 68°48' E 016°33'0 0.0
2017-Nov-17 04:00N 68°48' E 016°33'0 0.0
2017-Nov-17 03:30N 68°48' E 016°33'0 0.0
2017-Nov-17 03:00N 68°48' E 016°33'0 0.0
2017-Nov-17 02:31N 68°48' E 016°33'0 0.0
2017-Nov-17 02:01N 68°48' E 016°33'0 0.0
2017-Nov-17 01:30N 68°48' E 016°33'0 0.0
2017-Nov-17 01:00N 68°48' E 016°33'0 0.0
2017-Nov-17 00:30N 68°48' E 016°33'0 0.0
2017-Nov-17 00:00N 68°48' E 016°33'0 0.0
2017-Nov-16 23:30N 68°48' E 016°33'0 0.0
2017-Nov-16 23:00N 68°48' E 016°33'0 0.0
2017-Nov-16 22:30N 68°48' E 016°33'0 0.0
2017-Nov-16 22:00N 68°48' E 016°33'0 0.0
2017-Nov-16 21:31N 68°48' E 016°33'1 2.8
2017-Nov-16 21:01N 68°48' E 016°36'510.1
2017-Nov-16 20:31N 68°44' E 016°46'4 8.6
2017-Nov-16 20:01N 68°44' E 016°58'510.1
2017-Nov-16 19:31N 68°45' E 017°10'510.3
2017-Nov-16 19:00N 68°49' E 017°22'510.3
2017-Nov-16 18:30N 68°52' E 017°32'4 7.3
2017-Nov-16 18:00N 68°54' E 017°41'0 0.0
2017-Nov-16 17:30N 68°54' E 017°41'0 0.0
2017-Nov-16 17:00N 68°54' E 017°41'0 0.0
2017-Nov-16 16:30N 68°54' E 017°41'2 3.4
2017-Nov-16 16:01N 68°54' E 017°37'5 9.3
2017-Nov-16 15:30N 68°50' E 017°28'5 1.5
2017-Nov-16 12:04N 68°47' E 017°38'0 3.8
2017-Nov-16 11:58N 68°47' E 017°38'4 8.2
2017-Nov-16 11:30N 68°49' E 017°29'5 9.5
2017-Nov-16 11:00N 68°47' E 017°17'510.0
2017-Nov-16 10:31N 68°44' E 017°06'510.0
2017-Nov-16 10:00N 68°43' E 016°53'4 8.9
2017-Nov-16 09:31N 68°46' E 016°43'5 9.3
2017-Nov-16 09:00N 68°49' E 016°33'0 0.3
2017-Nov-16 08:30N 68°48' E 016°33'0 0.0
2017-Nov-16 07:59N 68°48' E 016°33'0 0.0
2017-Nov-16 07:30N 68°48' E 016°33'0 0.0
2017-Nov-16 07:00N 68°48' E 016°33'0 0.0
2017-Nov-16 06:30N 68°48' E 016°33'0 0.0
2017-Nov-16 06:00N 68°48' E 016°33'0 0.0
2017-Nov-16 05:30N 68°48' E 016°33'0 0.0
2017-Nov-16 05:00N 68°48' E 016°33'0 0.0
2017-Nov-16 04:30N 68°48' E 016°33'0 0.0
2017-Nov-16 04:00N 68°48' E 016°33'0 0.0
2017-Nov-16 03:31N 68°48' E 016°33'0 0.0
2017-Nov-16 03:00N 68°48' E 016°33'0 0.0
2017-Nov-16 02:30N 68°48' E 016°33'0 0.0
2017-Nov-16 02:00N 68°48' E 016°33'0 0.0
2017-Nov-16 01:30N 68°48' E 016°33'0 0.0
2017-Nov-16 01:00N 68°48' E 016°33'0 0.0
2017-Nov-16 00:30N 68°48' E 016°33'0 0.0
2017-Nov-16 00:00N 68°48' E 016°33'0 0.0
2017-Nov-15 23:30N 68°48' E 016°33'0 0.0
2017-Nov-15 23:01N 68°48' E 016°33'0 0.0
2017-Nov-15 22:30N 68°48' E 016°33'0 0.0
2017-Nov-15 22:00N 68°48' E 016°33'0 0.0
2017-Nov-15 21:30N 68°48' E 016°33'0 0.0
2017-Nov-15 21:00N 68°48' E 016°33'0 0.0
2017-Nov-15 20:30N 68°48' E 016°33'0 0.0
2017-Nov-15 20:00N 68°48' E 016°33'0 0.0
2017-Nov-15 19:30N 68°48' E 016°33'0 0.0
2017-Nov-15 19:00N 68°48' E 016°33'0 0.0
2017-Nov-15 18:30N 68°48' E 016°33'0 0.0
2017-Nov-15 18:00N 68°48' E 016°33'0 0.0
2017-Nov-15 17:30N 68°48' E 016°33'0 0.0
2017-Nov-15 17:00N 68°48' E 016°33'0 0.0
2017-Nov-15 16:30N 68°48' E 016°33'0 0.0
2017-Nov-15 16:00N 68°48' E 016°33'0 0.0
2017-Nov-15 15:30N 68°48' E 016°33'0 0.0
2017-Nov-15 15:00N 68°48' E 016°33'0 0.0
2017-Nov-15 14:30N 68°48' E 016°33'0 0.0
2017-Nov-15 14:00N 68°48' E 016°33'0 0.0
2017-Nov-15 13:30N 68°48' E 016°33'0 0.0
2017-Nov-15 13:00N 68°48' E 016°33'0 0.0
2017-Nov-15 12:30N 68°48' E 016°33'0 0.0
2017-Nov-15 12:00N 68°48' E 016°33'0 0.0
2017-Nov-15 11:30N 68°48' E 016°33'0 0.0
2017-Nov-15 11:00N 68°48' E 016°33'0 0.0
2017-Nov-15 10:30N 68°48' E 016°33'0 0.0
2017-Nov-15 10:00N 68°48' E 016°33'0 0.0
2017-Nov-15 09:30N 68°48' E 016°33'0 0.0
2017-Nov-15 09:00N 68°48' E 016°33'0 0.0
2017-Nov-15 08:30N 68°48' E 016°33'0 0.0
2017-Nov-15 08:00N 68°48' E 016°33'1 1.1
2017-Nov-15 07:30N 68°48' E 016°33'0 0.0
2017-Nov-15 06:58N 68°48' E 016°33'0 0.0
2017-Nov-15 06:28N 68°48' E 016°33'0 0.0
2017-Nov-15 05:58N 68°48' E 016°33'0 0.0
2017-Nov-15 05:28N 68°48' E 016°33'0 0.0
2017-Nov-15 05:00N 68°48' E 016°33'2 4.0
2017-Nov-15 04:30N 68°48' E 016°38'2 4.2
2017-Nov-15 04:00N 68°47' E 016°44'2 3.0
2017-Nov-15 03:30N 68°46' E 016°46'2 4.1
2017-Nov-15 03:00N 68°44' E 016°48'3 6.6
2017-Nov-15 02:30N 68°43' E 016°57'4 7.4
2017-Nov-15 02:00N 68°44' E 017°07'4 8.6
2017-Nov-15 01:30N 68°44' E 017°18'3 5.7
2017-Nov-15 00:59N 68°43' E 017°26'0 0.4
2017-Nov-15 00:02N 68°43' E 017°26'0 0.3
2017-Nov-14 23:54N 68°43' E 017°26'0 0.0
2017-Nov-14 23:04N 68°43' E 017°26'0 1.5
2017-Nov-14 22:58N 68°43' E 017°26'3 6.8
2017-Nov-14 22:30N 68°44' E 017°18'4 8.8
2017-Nov-14 22:00N 68°44' E 017°06'5 9.2
2017-Nov-14 21:30N 68°43' E 016°53'2 5.1
2017-Nov-14 21:00N 68°45' E 016°50'3 5.8
2017-Nov-14 20:30N 68°48' E 016°55'0 0.0
2017-Nov-14 19:59N 68°48' E 016°55'0 0.0
2017-Nov-14 19:30N 68°48' E 016°55'0 0.0
2017-Nov-14 19:00N 68°48' E 016°55'0 0.0
2017-Nov-14 18:30N 68°48' E 016°55'0 0.7
2017-Nov-14 18:00N 68°48' E 016°54'4 8.9
2017-Nov-14 17:30N 68°48' E 016°42'3 6.9
2017-Nov-14 17:00N 68°48' E 016°33'0 0.0
2017-Nov-14 16:29N 68°48' E 016°33'0 0.0
2017-Nov-14 15:59N 68°48' E 016°33'0 0.0
2017-Nov-14 15:29N 68°48' E 016°33'0 0.0
2017-Nov-14 14:59N 68°48' E 016°33'0 0.0
2017-Nov-14 14:29N 68°48' E 016°33'0 0.0
2017-Nov-14 13:59N 68°48' E 016°33'0 0.0
2017-Nov-14 13:29N 68°48' E 016°33'0 0.0
2017-Nov-14 12:59N 68°48' E 016°33'0 0.0
2017-Nov-14 12:29N 68°48' E 016°33'0 0.0
2017-Nov-14 11:59N 68°48' E 016°33'0 0.0
2017-Nov-14 11:29N 68°48' E 016°33'0 0.0
2017-Nov-14 10:59N 68°48' E 016°33'0 0.0
2017-Nov-14 10:29N 68°48' E 016°33'0 0.0
2017-Nov-14 09:59N 68°48' E 016°33'0 0.0
2017-Nov-14 09:29N 68°48' E 016°33'0 0.0
2017-Nov-14 08:59N 68°48' E 016°33'0 0.0
2017-Nov-14 08:29N 68°48' E 016°33'0 0.0
2017-Nov-14 07:59N 68°48' E 016°33'0 0.0
2017-Nov-14 07:29N 68°48' E 016°33'0 0.0
2017-Nov-14 06:59N 68°48' E 016°33'0 0.0
2017-Nov-14 06:29N 68°48' E 016°33'0 0.0
2017-Nov-14 05:59N 68°48' E 016°33'0 0.0
2017-Nov-14 05:29N 68°48' E 016°33'0 0.0
2017-Nov-14 04:59N 68°48' E 016°33'0 0.0
2017-Nov-14 04:29N 68°48' E 016°33'0 0.0
2017-Nov-14 03:59N 68°48' E 016°33'0 0.0
2017-Nov-14 03:29N 68°48' E 016°33'0 0.0
2017-Nov-14 02:59N 68°48' E 016°33'0 0.0
2017-Nov-14 02:29N 68°48' E 016°33'0 0.0
2017-Nov-14 01:59N 68°48' E 016°33'0 0.0
2017-Nov-14 01:29N 68°48' E 016°33'0 0.0
2017-Nov-14 00:59N 68°48' E 016°33'0 0.0
2017-Nov-14 00:29N 68°48' E 016°33'0 0.0
2017-Nov-13 23:59N 68°48' E 016°33'0 0.0
2017-Nov-13 23:29N 68°48' E 016°33'0 0.0
2017-Nov-13 22:59N 68°48' E 016°33'0 0.0
2017-Nov-13 22:29N 68°48' E 016°33'0 0.0
2017-Nov-13 21:59N 68°48' E 016°33'24 1.2
2017-Nov-13 01:59N 68°47' E 017°38'0 0.0
2017-Nov-13 01:13N 68°47' E 017°38'0 0.0
2017-Nov-12 19:51N 68°47' E 017°38'0 0.7
2017-Nov-12 19:30N 68°47' E 017°39'1 1.5
2017-Nov-12 18:58N 68°48' E 017°37'3 5.7
2017-Nov-12 18:30N 68°49' E 017°31'3 6.0
2017-Nov-12 18:00N 68°49' E 017°23'3 5.7
2017-Nov-12 17:30N 68°47' E 017°17'2 4.5
2017-Nov-12 17:00N 68°45' E 017°16'3 6.0
2017-Nov-12 16:30N 68°44' E 017°23'1 2.3
2017-Nov-12 15:53N 68°43' E 017°26'0 0.1
2017-Nov-12 15:07N 68°43' E 017°26'0 0.0
2017-Nov-12 14:59N 68°43' E 017°26'0 0.0
2017-Nov-12 14:24N 68°43' E 017°26'0 0.0
2017-Nov-12 13:59N 68°43' E 017°26'3 6.3
2017-Nov-12 13:30N 68°44' E 017°18'4 8.7
2017-Nov-12 13:00N 68°48' E 017°11'4 8.6
2017-Nov-12 12:30N 68°51' E 017°05'4 8.1
2017-Nov-12 12:00N 68°52' E 016°54'4 9.0
2017-Nov-12 11:30N 68°51' E 016°42'1 1.6
2017-Nov-12 11:00N 68°52' E 016°40'0 0.0
2017-Nov-12 10:30N 68°52' E 016°40'0 0.0
2017-Nov-12 10:00N 68°52' E 016°40'0 0.0
2017-Nov-12 09:30N 68°52' E 016°40'0 0.0
2017-Nov-12 09:00N 68°52' E 016°40'1 2.6
2017-Nov-12 08:30N 68°51' E 016°40'3 6.8
2017-Nov-12 08:00N 68°48' E 016°33'0 0.2
2017-Nov-12 07:29N 68°48' E 016°33'0 0.0
2017-Nov-12 06:59N 68°48' E 016°33'0 0.0
2017-Nov-12 06:29N 68°48' E 016°33'0 0.0
2017-Nov-12 05:59N 68°48' E 016°33'0 0.0
2017-Nov-12 05:29N 68°48' E 016°33'0 0.0
2017-Nov-12 04:59N 68°48' E 016°33'0 0.0
2017-Nov-12 04:29N 68°48' E 016°33'0 0.0
2017-Nov-12 03:59N 68°48' E 016°33'0 0.0
2017-Nov-12 03:29N 68°48' E 016°33'0 0.0
2017-Nov-12 02:59N 68°48' E 016°33'0 0.0
2017-Nov-12 02:29N 68°48' E 016°33'0 0.0
2017-Nov-12 01:59N 68°48' E 016°33'0 0.0
2017-Nov-12 01:29N 68°48' E 016°33'0 0.0
2017-Nov-12 00:59N 68°48' E 016°33'0 0.0
2017-Nov-12 00:29N 68°48' E 016°33'0 0.0
2017-Nov-11 23:59N 68°48' E 016°33'0 0.0
2017-Nov-11 23:29N 68°48' E 016°33'0 0.0
2017-Nov-11 22:59N 68°48' E 016°33'0 0.0
2017-Nov-11 22:29N 68°48' E 016°33'0 0.0
2017-Nov-11 21:59N 68°48' E 016°33'0 0.0
2017-Nov-11 21:29N 68°48' E 016°33'0 0.0
2017-Nov-11 20:59N 68°48' E 016°33'0 0.0
2017-Nov-11 20:29N 68°48' E 016°33'0 0.1
2017-Nov-11 20:01N 68°48' E 016°33'4 8.1
2017-Nov-11 19:30N 68°46' E 016°42'5 9.7
2017-Nov-11 19:00N 68°43' E 016°52'510.4
2017-Nov-11 18:30N 68°44' E 017°06'510.4
2017-Nov-11 18:01N 68°44' E 017°21'2 0.7
2017-Nov-11 15:01N 68°43' E 017°26'0 2.9
2017-Nov-11 14:52N 68°43' E 017°26'3 8.6
2017-Nov-11 14:30N 68°44' E 017°18'4 8.9
2017-Nov-11 14:00N 68°48' E 017°10'5 9.2
2017-Nov-11 13:30N 68°52' E 017°04'4 8.7
2017-Nov-11 13:00N 68°52' E 016°52'4 8.4
2017-Nov-11 12:30N 68°52' E 016°40'0 0.5
2017-Nov-11 12:00N 68°52' E 016°40'0 0.0
2017-Nov-11 11:30N 68°52' E 016°40'0 0.0
2017-Nov-11 11:00N 68°52' E 016°40'0 0.0
2017-Nov-11 10:30N 68°52' E 016°40'0 0.0
2017-Nov-11 10:00N 68°52' E 016°40'0 0.0
2017-Nov-11 09:30N 68°52' E 016°40'1 2.8
2017-Nov-11 09:00N 68°53' E 016°40'510.2
2017-Nov-11 08:30N 68°58' E 016°47'5 9.9
2017-Nov-11 08:00N 69°02' E 016°45'510.0
2017-Nov-11 07:30N 69°08' E 016°47'510.3
2017-Nov-11 07:00N 69°12' E 016°52'510.2
2017-Nov-11 06:30N 69°18' E 016°53'4 8.8
2017-Nov-11 06:00N 69°21' E 017°01'2 3.2
2017-Nov-11 05:30N 69°20' E 017°06'0 0.0
2017-Nov-11 05:00N 69°20' E 017°06'0 0.0
2017-Nov-11 04:30N 69°20' E 017°06'0 0.0
2017-Nov-11 04:00N 69°20' E 017°06'3 5.6
2017-Nov-11 03:30N 69°21' E 016°58'3 7.0
2017-Nov-11 03:01N 69°24' E 016°51'4 8.6
2017-Nov-11 02:30N 69°28' E 016°54'4 7.6
2017-Nov-11 02:01N 69°31' E 016°59'4 8.2
2017-Nov-11 01:30N 69°33' E 017°10'4 8.0
2017-Nov-11 01:00N 69°35' E 017°20'4 7.9
2017-Nov-11 00:30N 69°37' E 017°30'4 8.6
2017-Nov-11 00:00N 69°36' E 017°42'3 6.5
2017-Nov-10 23:30N 69°33' E 017°46'0 0.0
2017-Nov-10 23:00N 69°33' E 017°46'0 0.0
2017-Nov-10 22:30N 69°33' E 017°46'0 0.0
2017-Nov-10 22:00N 69°33' E 017°46'2 3.0
2017-Nov-10 21:30N 69°34' E 017°45'4 8.7
2017-Nov-10 21:00N 69°37' E 017°34'510.0
2017-Nov-10 20:30N 69°35' E 017°20'510.6
2017-Nov-10 20:00N 69°33' E 017°07'510.7
2017-Nov-10 19:31N 69°30' E 016°54'510.7
2017-Nov-10 19:00N 69°24' E 016°52'4 8.1
2017-Nov-10 18:30N 69°21' E 016°59'2 5.0
2017-Nov-10 18:00N 69°20' E 017°06'0 0.0
2017-Nov-10 17:30N 69°20' E 017°06'0 0.0
2017-Nov-10 17:00N 69°20' E 017°06'0 0.0
2017-Nov-10 16:30N 69°20' E 017°06'1 1.6
2017-Nov-10 16:00N 69°20' E 017°03'5 8.9
2017-Nov-10 15:30N 69°22' E 016°51'4 7.6
2017-Nov-10 15:00N 69°26' E 016°53'4 8.0
2017-Nov-10 14:30N 69°30' E 016°54'4 8.0
2017-Nov-10 14:00N 69°32' E 017°03'4 8.3
2017-Nov-10 13:31N 69°34' E 017°13'4 8.8
2017-Nov-10 13:00N 69°36' E 017°24'4 8.7
2017-Nov-10 12:30N 69°36' E 017°37'4 8.3
2017-Nov-10 12:00N 69°33' E 017°45'1 1.6
2017-Nov-10 11:30N 69°33' E 017°46'0 0.0
2017-Nov-10 11:00N 69°33' E 017°46'0 0.0
2017-Nov-10 10:30N 69°33' E 017°46'0 0.0
2017-Nov-10 10:00N 69°33' E 017°46'0 0.0
2017-Nov-10 09:30N 69°33' E 017°46'0 0.0
2017-Nov-10 09:00N 69°33' E 017°46'0 0.0
2017-Nov-10 08:30N 69°33' E 017°46'0 0.1
2017-Nov-10 08:00N 69°33' E 017°46'0 0.0
2017-Nov-10 07:30N 69°33' E 017°46'0 0.0
2017-Nov-10 07:00N 69°33' E 017°46'1 1.0
2017-Nov-10 06:30N 69°33' E 017°46'0 0.4
2017-Nov-10 06:00N 69°33' E 017°46'0 0.9
2017-Nov-10 05:30N 69°34' E 017°45'3 5.8
2017-Nov-10 05:00N 69°37' E 017°43'2 4.0
2017-Nov-10 04:30N 69°38' E 017°43'3 5.6
2017-Nov-10 04:00N 69°37' E 017°50'3 7.0
2017-Nov-10 03:31N 69°34' E 017°56'4 7.1
2017-Nov-10 03:00N 69°31' E 018°01'3 6.9
2017-Nov-10 02:30N 69°28' E 018°06'4 7.2
2017-Nov-10 02:01N 69°25' E 018°07'3 6.7
2017-Nov-10 01:30N 69°21' E 018°06'3 6.8
2017-Nov-10 01:00N 69°19' E 017°59'3 6.7
2017-Nov-10 00:31N 69°16' E 017°58'3 6.2
2017-Nov-10 00:00N 69°13' E 017°60'3 5.3
2017-Nov-09 23:30N 69°10' E 017°57'3 6.5
2017-Nov-09 23:01N 69°09' E 017°49'3 6.8
2017-Nov-09 22:31N 69°08' E 017°40'4 7.0
2017-Nov-09 22:00N 69°06' E 017°31'3 7.0
2017-Nov-09 21:31N 69°04' E 017°23'4 7.4
2017-Nov-09 21:00N 69°01' E 017°20'4 8.2
2017-Nov-09 20:30N 68°57' E 017°23'4 8.3
2017-Nov-09 20:01N 68°53' E 017°28'3 6.5
2017-Nov-09 19:31N 68°50' E 017°28'3 6.2
2017-Nov-09 18:58N 68°48' E 017°35'1 1.8
2017-Nov-09 18:12N 68°47' E 017°38'0 0.0
2017-Nov-09 17:47N 68°47' E 017°38'0 0.1
2017-Nov-09 16:26N 68°47' E 017°38'0 0.1
2017-Nov-09 15:06N 68°47' E 017°38'0 0.3
2017-Nov-09 14:35N 68°47' E 017°39'0 0.8
2017-Nov-09 14:29N 68°47' E 017°39'0 0.0
2017-Nov-09 13:59N 68°47' E 017°39'0 0.0
2017-Nov-09 13:30N 68°47' E 017°39'0 0.0
2017-Nov-09 13:01N 68°47' E 017°39'0 0.1
2017-Nov-09 12:30N 68°47' E 017°39'0 0.1
2017-Nov-09 11:35N 68°47' E 017°39'0 0.0
2017-Nov-09 10:51N 68°47' E 017°39'0 0.0
2017-Nov-09 10:19N 68°47' E 017°39'0 0.0
2017-Nov-09 09:58N 68°47' E 017°39'1 1.2
2017-Nov-09 09:30N 68°48' E 017°38'0 0.9
2017-Nov-09 09:01N 68°48' E 017°36'3 5.6
2017-Nov-09 08:30N 68°49' E 017°30'4 7.8
2017-Nov-09 08:00N 68°48' E 017°20'3 7.0
2017-Nov-09 07:30N 68°45' E 017°16'4 8.0
2017-Nov-09 07:00N 68°43' E 017°26'1 1.1
2017-Nov-09 06:27N 68°43' E 017°26'0 0.0
2017-Nov-09 05:59N 68°43' E 017°26'0 0.1
2017-Nov-09 04:30N 68°43' E 017°26'4 7.4
2017-Nov-09 04:00N 68°44' E 017°17'5 9.3
2017-Nov-09 03:30N 68°44' E 017°04'5 9.4
2017-Nov-09 03:00N 68°43' E 016°51'4 7.9
2017-Nov-09 02:30N 68°46' E 016°45'5 9.1
2017-Nov-09 02:00N 68°50' E 016°41'1 2.9
2017-Nov-09 01:31N 68°52' E 016°40'  

Dump ship's entire track history